createdAt,value
2019-06-26T00:01:47.529Z,94.70
2019-06-26T00:04:17.715Z,94.70
2019-06-26T00:06:47.742Z,94.80
2019-06-26T00:09:17.889Z,94.90
2019-06-26T00:11:47.899Z,94.90
2019-06-26T00:14:17.927Z,95.00
2019-06-26T00:16:48.030Z,95.10
2019-06-26T00:19:18.020Z,95.20
2019-06-26T00:21:48.067Z,95.30
2019-06-26T00:24:18.205Z,95.40
2019-06-26T00:26:48.387Z,95.10
2019-06-26T00:29:18.403Z,95.40
2019-06-26T00:31:48.487Z,95.50
2019-06-26T00:34:18.576Z,95.60
2019-06-26T00:36:48.590Z,95.60
2019-06-26T00:39:18.658Z,95.70
2019-06-26T00:41:48.755Z,95.90
2019-06-26T00:44:19.734Z,95.90
2019-06-26T00:46:49.743Z,95.90
2019-06-26T00:49:20.200Z,96.00
2019-06-26T00:51:50.290Z,96.10
2019-06-26T00:54:20.363Z,96.10
2019-06-26T00:56:50.395Z,96.20
2019-06-26T00:59:20.478Z,96.30
2019-06-26T01:01:50.616Z,96.50
2019-06-26T01:04:25.298Z,96.50
2019-06-26T01:06:55.399Z,96.50
2019-06-26T01:09:25.500Z,96.50
2019-06-26T01:11:55.567Z,96.50
2019-06-26T01:14:25.594Z,96.70
2019-06-26T01:16:55.669Z,96.60
2019-06-26T01:19:25.846Z,96.70
2019-06-26T01:21:55.931Z,96.70
2019-06-26T01:24:25.955Z,96.80
2019-06-26T01:26:55.963Z,96.90
2019-06-26T01:29:26.026Z,96.80
2019-06-26T01:31:56.065Z,96.90
2019-06-26T01:34:26.106Z,96.80
2019-06-26T01:36:56.229Z,96.90
2019-06-26T01:39:26.257Z,96.90
2019-06-26T01:41:56.299Z,97.00
2019-06-26T01:44:26.343Z,97.00
2019-06-26T01:46:56.341Z,97.10
2019-06-26T01:49:26.462Z,97.40
2019-06-26T01:51:56.523Z,97.60
2019-06-26T01:54:26.652Z,97.50
2019-06-26T01:56:56.685Z,97.60
2019-06-26T01:59:27.934Z,97.60
2019-06-26T02:01:58.143Z,97.70
2019-06-26T02:04:28.186Z,98.10
2019-06-26T02:06:58.326Z,97.80
2019-06-26T02:09:28.508Z,97.80
2019-06-26T02:12:00.494Z,97.90
2019-06-26T02:14:31.961Z,98.00
2019-06-26T02:17:02.247Z,98.10
2019-06-26T02:19:32.444Z,98.20
2019-06-26T02:22:02.601Z,98.20
2019-06-26T02:24:32.634Z,98.20
2019-06-26T02:27:02.700Z,98.30
2019-06-26T02:29:32.740Z,98.40
2019-06-26T02:32:02.853Z,98.40
2019-06-26T02:34:32.993Z,98.50
2019-06-26T02:37:03.068Z,98.50
2019-06-26T02:39:33.108Z,98.50
2019-06-26T02:42:03.147Z,98.60
2019-06-26T02:44:51.315Z,98.60
2019-06-26T02:47:18.684Z,98.70
2019-06-26T02:49:36.763Z,98.70
2019-06-26T02:52:06.818Z,98.70
2019-06-26T02:54:36.875Z,98.70
2019-06-26T02:57:06.899Z,98.80
2019-06-26T02:59:37.035Z,98.90
2019-06-26T03:02:07.068Z,98.90
2019-06-26T03:04:38.350Z,98.90
2019-06-26T03:07:08.438Z,99.00
2019-06-26T03:09:38.550Z,99.10
2019-06-26T03:12:08.560Z,99.10
2019-06-26T03:14:38.587Z,99.20
2019-06-26T03:17:08.634Z,99.20
2019-06-26T03:19:38.681Z,99.30
2019-06-26T03:22:08.811Z,99.30
2019-06-26T03:24:38.811Z,99.10
2019-06-26T03:27:09.218Z,99.20
2019-06-26T03:29:39.430Z,99.10
2019-06-26T03:32:09.460Z,99.10
2019-06-26T03:34:39.472Z,99.20
2019-06-26T03:37:09.504Z,99.20
2019-06-26T03:39:39.528Z,99.20
2019-06-26T03:42:09.596Z,99.10
2019-06-26T03:44:39.627Z,99.10
2019-06-26T03:47:09.664Z,99.10
2019-06-26T03:49:39.680Z,99.00
2019-06-26T03:52:09.812Z,98.90
2019-06-26T03:54:39.846Z,98.90
2019-06-26T03:57:09.915Z,98.80
2019-06-26T03:59:39.928Z,98.70
2019-06-26T04:02:10.042Z,98.60
2019-06-26T04:04:40.046Z,98.60
2019-06-26T04:07:10.076Z,98.50
2019-06-26T04:09:40.071Z,98.40
2019-06-26T04:12:10.175Z,98.30
2019-06-26T04:14:40.222Z,98.20
2019-06-26T04:17:10.265Z,98.10
2019-06-26T04:19:40.296Z,98.00
2019-06-26T04:22:10.388Z,97.80
2019-06-26T04:24:40.447Z,97.70
2019-06-26T04:27:10.607Z,97.50
2019-06-26T04:29:40.627Z,97.20
2019-06-26T04:32:10.687Z,97.00
2019-06-26T04:34:40.719Z,96.80
2019-06-26T04:37:10.931Z,96.70
2019-06-26T04:39:42.055Z,96.60
2019-06-26T04:42:12.091Z,96.50
2019-06-26T04:44:42.196Z,96.40
2019-06-26T04:47:12.346Z,96.10
2019-06-26T04:49:42.422Z,96.10
2019-06-26T04:52:12.456Z,95.90
2019-06-26T04:54:42.601Z,95.60
2019-06-26T04:57:12.726Z,95.60
2019-06-26T04:59:42.776Z,95.20
2019-06-26T05:02:12.875Z,95.00
2019-06-26T05:04:42.894Z,94.60
2019-06-26T05:07:12.993Z,94.20
2019-06-26T05:09:43.178Z,94.70
2019-06-26T05:12:13.225Z,94.10
2019-06-26T05:14:43.239Z,93.90
2019-06-26T05:17:13.294Z,93.60
2019-06-26T05:19:43.382Z,93.50
2019-06-26T05:22:13.434Z,93.50
2019-06-26T05:24:46.348Z,93.20
2019-06-26T05:27:15.295Z,92.90
2019-06-26T05:29:45.378Z,92.70
2019-06-26T05:32:15.411Z,92.30
2019-06-26T05:34:45.451Z,91.80
2019-06-26T05:37:16.051Z,91.70
2019-06-26T05:39:46.267Z,91.70
2019-06-26T05:42:16.367Z,91.50
2019-06-26T05:44:46.477Z,91.40
2019-06-26T05:47:16.493Z,91.40
2019-06-26T05:49:46.550Z,91.30
2019-06-26T05:52:16.854Z,91.10
2019-06-26T05:54:47.065Z,90.80
2019-06-26T05:57:17.099Z,90.70
2019-06-26T05:59:47.198Z,90.70
2019-06-26T06:02:17.295Z,90.50
2019-06-26T06:04:47.438Z,90.10
2019-06-26T06:07:17.540Z,87.40
2019-06-26T06:09:47.689Z,78.80
2019-06-26T06:12:17.722Z,68.70
2019-06-26T06:14:48.985Z,61.40
2019-06-26T06:17:19.085Z,55.40
2019-06-26T06:19:49.172Z,49.20
2019-06-26T06:22:19.249Z,45.40
2019-06-26T06:24:49.518Z,44.30
2019-06-26T06:27:20.171Z,41.90
2019-06-26T06:29:50.858Z,39.50
2019-06-26T06:32:20.976Z,38.80
2019-06-26T06:37:20.806Z,38.20
2019-06-26T06:39:50.989Z,39.60
2019-06-26T06:42:21.173Z,38.90
2019-06-26T06:44:51.407Z,38.30
2019-06-26T06:47:21.422Z,38.70
2019-06-26T06:49:51.612Z,37.70
2019-06-26T06:52:21.666Z,35.20
2019-06-26T06:54:51.756Z,35.60
2019-06-26T06:57:21.852Z,34.40
2019-06-26T06:59:51.962Z,34.10
2019-06-26T07:02:22.021Z,32.80
2019-06-26T07:04:52.203Z,32.00
2019-06-26T07:07:23.551Z,32.50
2019-06-26T07:09:53.693Z,32.40
2019-06-26T07:12:24.237Z,31.70
2019-06-26T07:14:54.490Z,31.40
2019-06-26T07:17:24.710Z,31.20
2019-06-26T07:19:56.135Z,30.70
2019-06-26T07:22:26.257Z,30.80
2019-06-26T07:24:56.439Z,30.60
2019-06-26T07:27:26.586Z,29.90
2019-06-26T07:29:56.752Z,28.70
2019-06-26T07:32:27.061Z,28.90
2019-06-26T07:34:57.263Z,29.90
2019-06-26T07:37:27.393Z,29.70
2019-06-26T07:40:01.475Z,29.10
2019-06-26T07:42:29.422Z,28.60
2019-06-26T07:44:59.500Z,29.50
2019-06-26T07:47:42.424Z,29.20
2019-06-26T07:50:01.403Z,29.80
2019-06-26T07:52:32.641Z,29.20
2019-06-26T07:55:04.084Z,29.30
2019-06-26T07:57:34.277Z,29.30
2019-06-26T08:00:04.645Z,29.40
2019-06-26T08:02:34.852Z,29.60
2019-06-26T08:05:07.520Z,29.90
2019-06-26T08:07:37.724Z,29.30
2019-06-26T08:10:08.488Z,29.00
2019-06-26T08:12:40.389Z,29.40
2019-06-26T08:15:10.796Z,29.70
2019-06-26T08:17:40.853Z,29.10
2019-06-26T08:20:11.538Z,29.20
2019-06-26T08:22:41.643Z,29.30
2019-06-26T08:25:11.747Z,29.30
2019-06-26T08:27:41.867Z,30.10
2019-06-26T08:30:12.440Z,30.00
2019-06-26T08:32:42.573Z,30.00
2019-06-26T08:35:12.810Z,29.10
2019-06-26T08:37:42.867Z,29.30
2019-06-26T08:40:13.007Z,29.40
2019-06-26T08:42:43.127Z,29.50
2019-06-26T08:45:14.691Z,29.00
2019-06-26T08:47:45.887Z,29.00
2019-06-26T08:50:16.407Z,29.00
2019-06-26T08:52:46.463Z,29.00
2019-06-26T08:55:17.053Z,28.60
2019-06-26T08:57:47.129Z,29.30
2019-06-26T09:00:19.035Z,29.00
2019-06-26T09:02:49.173Z,29.00
2019-06-26T09:05:19.411Z,30.20
2019-06-26T09:07:49.592Z,29.90
2019-06-26T09:10:19.788Z,29.00
2019-06-26T09:12:49.951Z,28.80
2019-06-26T09:15:20.003Z,28.60
2019-06-26T09:17:50.166Z,28.20
2019-06-26T09:20:27.785Z,28.40
2019-06-26T09:22:57.947Z,28.40
2019-06-26T09:25:28.021Z,28.20
2019-06-26T09:27:58.153Z,28.40
2019-06-26T09:30:28.357Z,28.80
2019-06-26T09:32:58.514Z,28.50
2019-06-26T09:35:29.812Z,29.30
2019-06-26T09:37:59.940Z,29.50
2019-06-26T09:40:31.912Z,29.50
2019-06-26T09:43:01.813Z,30.00
2019-06-26T09:45:31.930Z,29.70
2019-06-26T09:48:02.108Z,30.00
2019-06-26T09:50:32.179Z,29.80
2019-06-26T09:53:05.232Z,29.90
2019-06-26T09:55:34.043Z,29.80
2019-06-26T09:58:04.135Z,29.80
2019-06-26T10:00:34.178Z,30.20
2019-06-26T10:03:05.219Z,28.60
2019-06-26T10:05:35.252Z,28.60
2019-06-26T10:08:05.751Z,28.00
2019-06-26T10:10:35.869Z,28.60
2019-06-26T10:13:06.020Z,28.00
2019-06-26T10:15:36.070Z,28.80
2019-06-26T10:18:06.190Z,29.10
2019-06-26T10:20:36.274Z,29.20
2019-06-26T10:23:06.341Z,29.40
2019-06-26T10:25:36.418Z,29.40
2019-06-26T10:28:06.490Z,30.30
2019-06-26T10:30:36.516Z,30.00
2019-06-26T10:33:06.621Z,30.50
2019-06-26T10:35:36.754Z,30.70
2019-06-26T10:38:06.972Z,32.90
2019-06-26T10:40:37.028Z,34.60
2019-06-26T10:43:07.213Z,35.80
2019-06-26T10:45:38.465Z,36.90
2019-06-26T10:48:08.679Z,38.60
2019-06-26T10:50:49.371Z,39.20
2019-06-26T10:53:10.571Z,39.20
2019-06-26T10:55:40.614Z,39.30
2019-06-26T10:58:11.759Z,40.70
2019-06-26T11:00:41.834Z,41.40
2019-06-26T11:03:11.939Z,40.00
2019-06-26T11:05:42.283Z,39.00
2019-06-26T11:08:12.415Z,38.90
2019-06-26T11:10:42.558Z,40.30
2019-06-26T11:39:55.968Z,40.30
2019-06-26T11:42:32.853Z,41.40
2019-06-26T11:45:03.610Z,41.10
2019-06-26T11:47:33.967Z,41.40
2019-06-26T11:50:04.374Z,41.00
2019-06-26T11:52:34.640Z,41.20
2019-06-26T11:55:05.517Z,40.70
2019-06-26T11:57:36.365Z,40.20
2019-06-26T12:00:08.255Z,41.60
2019-06-26T12:02:38.964Z,40.50
2019-06-26T12:05:09.191Z,40.90
2019-06-26T12:07:39.812Z,40.50
2019-06-26T12:10:11.587Z,41.20
2019-06-26T12:12:42.748Z,40.60
2019-06-26T12:15:14.484Z,40.30
2019-06-26T12:17:44.820Z,40.70
2019-06-26T12:20:19.587Z,41.10
2019-06-26T12:22:49.670Z,40.20
2019-06-26T12:25:20.557Z,40.30
2019-06-26T12:27:51.409Z,40.40
2019-06-26T12:30:22.113Z,40.40
2019-06-26T12:33:02.747Z,41.10
2019-06-26T12:35:24.251Z,40.80
2019-06-26T12:37:54.322Z,40.40
2019-06-26T12:40:24.654Z,40.00
2019-06-26T12:42:55.858Z,39.50
2019-06-26T12:45:27.505Z,39.40
2019-06-26T12:47:57.648Z,39.60
2019-06-26T12:50:35.382Z,40.20
2019-06-26T12:52:59.530Z,40.40
2019-06-26T12:55:32.906Z,40.00
2019-06-26T12:58:12.395Z,41.00
2019-06-26T13:00:33.890Z,40.00
2019-06-26T13:03:05.016Z,39.20
2019-06-26T13:05:35.305Z,39.10
2019-06-26T13:08:05.801Z,38.80
2019-06-26T13:10:48.762Z,39.10
2019-06-26T13:13:07.889Z,40.30
2019-06-26T13:15:37.911Z,40.40
2019-06-26T13:18:08.308Z,41.00
2019-06-26T13:20:52.203Z,40.10
2019-06-26T13:23:13.811Z,39.70
2019-06-26T13:25:42.473Z,39.20
2019-06-26T13:28:14.182Z,39.00
2019-06-26T13:30:45.870Z,38.90
2019-06-26T13:33:16.453Z,39.40
2019-06-26T13:35:46.779Z,39.60
2019-06-26T13:38:16.970Z,39.30
2019-06-26T13:40:48.463Z,39.90
2019-06-26T13:43:18.705Z,39.30
2019-06-26T13:45:48.803Z,40.40
2019-06-26T13:48:18.859Z,39.10
2019-06-26T13:50:49.469Z,39.00
2019-06-26T13:53:19.515Z,39.00
2019-06-26T13:55:49.783Z,38.10
2019-06-26T13:58:19.865Z,38.90
2019-06-26T14:00:50.264Z,38.90
2019-06-26T14:03:21.886Z,39.00
2019-06-26T14:05:52.456Z,38.30
2019-06-26T14:08:22.904Z,38.40
2019-06-26T14:10:53.498Z,38.30
2019-06-26T14:13:23.688Z,38.30
2019-06-26T14:15:53.778Z,37.40
2019-06-26T14:18:23.945Z,36.70
2019-06-26T14:20:54.940Z,37.20
2019-06-26T14:23:24.983Z,38.80
2019-06-26T14:25:55.749Z,39.20
2019-06-26T14:28:26.057Z,38.30
2019-06-26T14:30:56.540Z,37.70
2019-06-26T14:33:26.966Z,38.50
2019-06-26T14:35:57.805Z,37.70
2019-06-26T14:38:29.852Z,38.00
2019-06-26T14:41:00.290Z,38.30
2019-06-26T14:43:30.616Z,38.80
2019-06-26T14:46:02.922Z,38.40
2019-06-26T14:48:33.598Z,37.80
2019-06-26T14:51:04.091Z,37.30
2019-06-26T14:53:34.202Z,37.00
2019-06-26T14:56:04.725Z,37.80
2019-06-26T14:58:36.368Z,37.80
2019-06-26T15:01:07.360Z,38.90
2019-06-26T15:03:38.002Z,38.20
2019-06-26T15:06:16.534Z,38.20
2019-06-26T15:08:40.359Z,37.90
2019-06-26T15:11:11.177Z,38.60
2019-06-26T15:13:41.842Z,38.40
2019-06-26T15:16:12.556Z,38.90
2019-06-26T15:18:42.596Z,38.10
2019-06-26T15:21:13.602Z,38.00
2019-06-26T15:23:43.907Z,37.80
2019-06-26T15:26:14.293Z,38.10
2019-06-26T15:28:44.553Z,38.10
2019-06-26T15:31:14.834Z,39.20
2019-06-26T15:33:44.945Z,38.10
2019-06-26T15:36:15.250Z,38.00
2019-06-26T15:38:45.617Z,38.50
2019-06-26T15:41:15.743Z,38.90
2019-06-26T15:43:45.886Z,39.50
2019-06-26T15:46:16.259Z,38.80
2019-06-26T15:48:50.209Z,39.60
2019-06-26T15:51:20.123Z,40.30
2019-06-26T15:53:50.313Z,38.20
2019-06-26T15:56:20.659Z,38.40
2019-06-26T15:58:51.381Z,38.20
2019-06-26T16:01:21.400Z,38.70
2019-06-26T16:03:51.438Z,39.30
2019-06-26T16:06:22.901Z,39.40
2019-06-26T16:08:53.707Z,40.50
2019-06-26T16:11:24.353Z,40.70
2019-06-26T16:13:54.606Z,42.30
2019-06-26T16:16:25.120Z,42.00
2019-06-26T16:19:00.490Z,40.50
2019-06-26T16:21:30.792Z,40.70
2019-06-26T16:24:01.106Z,41.40
2019-06-26T16:26:31.510Z,41.00
2019-06-26T16:29:01.832Z,40.20
2019-06-26T16:31:32.198Z,41.90
2019-06-26T16:34:02.781Z,39.90
2019-06-26T16:36:32.846Z,41.30
2019-06-26T16:39:02.904Z,41.10
2019-06-26T16:41:33.678Z,40.60
2019-06-26T16:44:04.438Z,40.40
2019-06-26T16:46:35.539Z,40.50
2019-06-26T16:49:05.741Z,40.00
2019-06-26T16:51:38.278Z,40.90
2019-06-26T16:54:08.557Z,40.30
2019-06-26T16:56:38.838Z,41.20
2019-06-26T16:59:09.254Z,40.80
2019-06-26T17:01:39.645Z,40.90
2019-06-26T17:04:09.718Z,41.30
2019-06-26T17:06:40.129Z,41.90
2019-06-26T17:09:10.603Z,40.10
2019-06-26T17:11:40.824Z,40.50
2019-06-26T17:14:11.113Z,41.60
2019-06-26T17:16:41.183Z,41.70
2019-06-26T17:19:12.608Z,41.00
2019-06-26T17:21:43.214Z,41.40
2019-06-26T17:24:13.545Z,40.90
2019-06-26T17:26:43.576Z,42.40
2019-06-26T17:29:13.595Z,41.50
2019-06-26T17:31:43.655Z,40.30
2019-06-26T17:34:14.542Z,41.10
2019-06-26T17:36:44.991Z,40.50
2019-06-26T17:39:15.028Z,41.50
2019-06-26T17:41:45.078Z,41.20
2019-06-26T17:44:15.142Z,41.20
2019-06-26T17:46:45.113Z,41.80
2019-06-26T17:49:15.357Z,41.90
2019-06-26T17:51:45.351Z,41.40
2019-06-26T17:54:17.092Z,42.00
2019-06-26T17:56:47.445Z,41.00
2019-06-26T17:59:17.474Z,41.40
2019-06-26T18:01:48.106Z,40.80
2019-06-26T18:04:18.683Z,41.40
2019-06-26T18:06:48.694Z,41.20
2019-06-26T18:09:20.146Z,41.40
2019-06-26T18:11:50.433Z,41.70
2019-06-26T18:14:20.464Z,41.80
2019-06-26T18:16:50.476Z,42.00
2019-06-26T18:19:21.370Z,43.10
2019-06-26T18:21:51.387Z,42.90
2019-06-26T18:24:21.788Z,42.70
2019-06-26T18:26:52.482Z,43.10
2019-06-26T18:29:22.786Z,43.00
2019-06-26T18:31:54.435Z,43.50
2019-06-26T18:34:25.066Z,43.90
2019-06-26T18:36:55.350Z,43.70
2019-06-26T18:39:25.662Z,44.10
2019-06-26T18:41:57.357Z,44.30
2019-06-26T18:44:27.708Z,45.00
2019-06-26T18:46:58.350Z,45.40
2019-06-26T18:49:28.432Z,46.20
2019-06-26T18:51:58.892Z,46.80
2019-06-26T18:54:29.578Z,47.50
2019-06-26T18:57:00.041Z,48.10
2019-06-26T18:59:30.322Z,48.80
2019-06-26T19:02:00.749Z,49.40
2019-06-26T19:04:30.851Z,50.20
2019-06-26T19:07:01.534Z,50.30
2019-06-26T19:09:31.780Z,50.80
2019-06-26T19:12:02.176Z,51.10
2019-06-26T19:14:33.519Z,51.20
2019-06-26T19:17:03.525Z,51.50
2019-06-26T19:19:33.914Z,51.90
2019-06-26T19:22:04.240Z,52.00
2019-06-26T19:24:34.267Z,51.60
2019-06-26T19:27:07.537Z,51.80
2019-06-26T19:29:36.631Z,51.70
2019-06-26T19:32:06.725Z,51.30
2019-06-26T19:34:36.926Z,51.10
2019-06-26T19:37:07.399Z,51.20
2019-06-26T19:39:38.031Z,50.90
2019-06-26T19:42:08.360Z,50.90
2019-06-26T19:44:38.511Z,51.10
2019-06-26T19:47:08.816Z,50.90
2019-06-26T19:49:39.022Z,50.60
2019-06-26T19:52:09.166Z,51.20
2019-06-26T19:54:40.260Z,50.80
2019-06-26T19:57:10.374Z,51.30
2019-06-26T19:59:40.439Z,52.30
2019-06-26T20:02:10.683Z,52.60
2019-06-26T20:04:42.576Z,53.10
2019-06-26T20:07:12.946Z,54.60
2019-06-26T20:09:43.778Z,54.60
2019-06-26T20:12:16.740Z,54.70
2019-06-26T20:14:47.203Z,54.70
2019-06-26T20:17:17.567Z,55.00
2019-06-26T20:19:47.658Z,55.30
2019-06-26T20:22:17.801Z,55.60
2019-06-26T20:24:48.287Z,55.90
2019-06-26T20:27:18.610Z,56.10
2019-06-26T20:29:50.931Z,56.20
2019-06-26T20:32:21.113Z,56.60
2019-06-26T20:34:52.440Z,57.00
2019-06-26T20:37:23.490Z,57.10
2019-06-26T20:39:53.773Z,57.10
2019-06-26T20:42:23.906Z,57.20
2019-06-26T20:44:54.026Z,57.60
2019-06-26T20:47:24.477Z,57.90
2019-06-26T20:49:54.994Z,58.10
2019-06-26T20:52:25.493Z,58.30
2019-06-26T20:55:01.235Z,58.90
2019-06-26T20:57:28.477Z,59.10
2019-06-26T20:59:59.120Z,59.70
2019-06-26T21:02:29.635Z,60.00
2019-06-26T21:05:00.122Z,60.00
2019-06-26T21:07:30.629Z,60.30
2019-06-26T21:10:01.237Z,60.00
2019-06-26T21:12:31.365Z,59.90
2019-06-26T21:15:01.433Z,59.90
2019-06-26T21:17:31.811Z,60.00
2019-06-26T21:20:01.910Z,60.20
2019-06-26T21:22:32.355Z,60.40
2019-06-26T21:25:17.021Z,60.80
2019-06-26T21:27:34.550Z,60.70
2019-06-26T21:30:18.071Z,60.80
2019-06-26T21:32:48.022Z,61.50
2019-06-26T21:35:18.380Z,61.90
2019-06-26T21:37:48.503Z,61.70
2019-06-26T21:40:18.783Z,62.00
2019-06-26T21:42:49.148Z,62.20
2019-06-26T21:45:21.062Z,63.10
2019-06-26T21:47:51.153Z,62.90
2019-06-26T21:50:23.243Z,63.50
2019-06-26T21:52:53.628Z,63.30
2019-06-26T21:55:34.246Z,63.90
2019-06-26T21:58:15.963Z,64.50
2019-06-26T22:01:04.665Z,64.90
2019-06-26T22:03:52.831Z,65.50
2019-06-26T22:06:36.437Z,65.80
2019-06-26T22:09:13.658Z,65.90
2019-06-26T22:11:44.411Z,66.20
2019-06-26T22:14:14.518Z,66.20
2019-06-26T22:16:44.836Z,66.20
2019-06-26T22:19:14.837Z,66.70
2019-06-26T22:21:44.786Z,67.20
2019-06-26T22:24:15.837Z,67.50
2019-06-26T22:26:45.879Z,68.20
2019-06-26T22:29:15.925Z,68.10
2019-06-26T22:32:30.352Z,68.10
2019-06-26T22:41:22.950Z,69.60
2019-06-26T22:43:53.254Z,69.70
2019-06-26T22:46:23.906Z,69.90
2019-06-26T22:48:54.143Z,70.00
2019-06-26T22:51:24.432Z,70.50
2019-06-26T22:53:54.931Z,71.20
2019-06-26T22:56:25.289Z,71.90
2019-06-26T22:58:55.458Z,72.30
2019-06-26T23:01:25.652Z,72.50
2019-06-26T23:03:55.919Z,72.70
2019-06-26T23:06:27.154Z,73.00
2019-06-26T23:08:57.406Z,73.40
2019-06-26T23:11:27.681Z,73.60
2019-06-26T23:13:57.840Z,73.90
2019-06-26T23:16:27.975Z,74.30
2019-06-26T23:18:58.206Z,74.70
2019-06-26T23:21:28.291Z,74.70
2019-06-26T23:23:58.499Z,74.90
2019-06-26T23:26:28.692Z,75.50
2019-06-26T23:28:58.891Z,75.70
2019-06-26T23:31:29.207Z,76.00
2019-06-26T23:33:59.320Z,76.10
2019-06-26T23:36:29.527Z,76.00
2019-06-26T23:38:59.704Z,76.40
2019-06-26T23:41:29.950Z,76.90
2019-06-26T23:44:00.259Z,77.20
2019-06-26T23:46:30.358Z,77.40
2019-06-26T23:49:00.533Z,77.70
2019-06-26T23:51:30.706Z,77.70
2019-06-26T23:54:00.930Z,77.40
2019-06-26T23:56:39.829Z,77.30
2019-06-26T23:59:02.906Z,77.40
